createdAt,value
2019-02-19T00:00:57.769Z,90.10
2019-02-19T00:03:26.160Z,90.20
2019-02-19T00:05:54.603Z,90.20
2019-02-19T00:08:23.038Z,90.30
2019-02-19T00:10:51.419Z,90.50
2019-02-19T00:13:19.832Z,90.50
2019-02-19T00:15:48.376Z,90.60
2019-02-19T00:18:16.775Z,90.70
2019-02-19T00:20:45.169Z,90.70
2019-02-19T00:23:13.662Z,90.80
2019-02-19T00:25:42.033Z,90.90
2019-02-19T00:28:10.431Z,90.90
2019-02-19T00:30:38.845Z,91.00
2019-02-19T00:33:07.255Z,91.00
2019-02-19T00:35:35.652Z,91.20
2019-02-19T00:38:04.054Z,91.20
2019-02-19T00:40:32.463Z,91.30
2019-02-19T00:43:00.854Z,91.30
2019-02-19T00:45:29.251Z,91.50
2019-02-19T00:47:57.651Z,91.60
2019-02-19T00:50:26.055Z,91.70
2019-02-19T00:52:54.468Z,91.80
2019-02-19T00:55:22.863Z,92.00
2019-02-19T00:57:51.303Z,92.00
2019-02-19T01:00:19.790Z,92.20
2019-02-19T01:02:48.171Z,92.30
2019-02-19T01:05:16.792Z,92.30
2019-02-19T01:07:45.265Z,92.30
2019-02-19T01:10:14.391Z,92.80
2019-02-19T01:12:42.812Z,92.40
2019-02-19T01:15:11.215Z,92.50
2019-02-19T01:17:39.879Z,92.70
2019-02-19T01:20:09.447Z,92.70
2019-02-19T01:22:37.868Z,92.70
2019-02-19T01:25:07.639Z,92.80
2019-02-19T01:27:36.051Z,92.70
2019-02-19T01:30:07.411Z,92.70
2019-02-19T01:32:35.807Z,92.70
2019-02-19T01:35:05.164Z,92.70
2019-02-19T01:37:33.550Z,92.90
2019-02-19T01:40:01.942Z,93.10
2019-02-19T01:42:30.332Z,93.20
2019-02-19T01:44:59.403Z,93.20
2019-02-19T01:47:27.807Z,93.30
2019-02-19T01:49:56.211Z,93.30
2019-02-19T01:52:24.616Z,93.30
2019-02-19T01:54:53.024Z,93.40
2019-02-19T01:57:21.435Z,93.50
2019-02-19T01:59:50.005Z,93.40
2019-02-19T02:02:18.475Z,93.50
2019-02-19T02:04:46.861Z,93.70
2019-02-19T02:07:15.304Z,93.90
2019-02-19T02:09:43.746Z,94.00
2019-02-19T02:12:12.212Z,94.20
2019-02-19T02:14:40.608Z,94.30
2019-02-19T02:17:09.025Z,94.40
2019-02-19T02:19:37.711Z,94.60
2019-02-19T02:22:06.106Z,94.70
2019-02-19T02:24:34.508Z,94.80
2019-02-19T02:27:02.895Z,94.90
2019-02-19T02:29:31.300Z,95.20
2019-02-19T02:31:59.718Z,95.40
2019-02-19T02:34:28.167Z,95.80
2019-02-19T02:36:56.573Z,96.10
2019-02-19T02:39:24.987Z,96.40
2019-02-19T02:41:53.387Z,96.60
2019-02-19T02:44:21.793Z,96.70
2019-02-19T02:46:50.215Z,96.80
2019-02-19T02:49:18.622Z,96.80
2019-02-19T02:51:47.005Z,96.90
2019-02-19T02:54:15.406Z,97.10
2019-02-19T02:56:43.824Z,97.20
2019-02-19T02:59:12.223Z,97.10
2019-02-19T03:01:40.624Z,97.20
2019-02-19T03:04:09.028Z,97.40
2019-02-19T03:06:44.583Z,97.80
2019-02-19T03:09:14.380Z,98.20
2019-02-19T03:11:42.779Z,98.60
2019-02-19T03:14:11.188Z,99.10
2019-02-19T03:16:39.606Z,99.50
2019-02-19T03:19:08.016Z,99.90
2019-02-19T03:21:36.435Z,99.90
2019-02-19T03:24:04.924Z,99.90
2019-02-19T03:26:33.340Z,99.90
2019-02-19T03:29:01.742Z,99.90
2019-02-19T03:31:30.154Z,99.90
2019-02-19T03:33:58.632Z,99.90
2019-02-19T03:36:27.047Z,99.90
2019-02-19T03:38:56.825Z,99.90
2019-02-19T03:41:25.219Z,99.90
2019-02-19T03:43:53.641Z,99.90
2019-02-19T03:46:22.069Z,99.90
2019-02-19T03:48:50.482Z,99.90
2019-02-19T03:51:18.892Z,99.90
2019-02-19T03:53:47.301Z,99.90
2019-02-19T03:56:15.785Z,99.90
2019-02-19T03:58:44.266Z,99.90
2019-02-19T04:01:12.753Z,99.90
2019-02-19T04:03:41.633Z,99.90
2019-02-19T04:06:10.059Z,99.90
2019-02-19T04:08:38.475Z,99.90
2019-02-19T04:11:07.645Z,99.90
2019-02-19T04:13:36.061Z,99.90
2019-02-19T04:16:04.480Z,99.90
2019-02-19T04:18:32.887Z,99.90
2019-02-19T04:21:01.292Z,99.90
2019-02-19T04:23:29.785Z,99.90
2019-02-19T04:25:58.281Z,99.90
2019-02-19T04:28:26.682Z,99.90
2019-02-19T04:30:55.078Z,99.90
2019-02-19T04:33:23.566Z,99.90
2019-02-19T04:35:51.961Z,99.90
2019-02-19T04:38:20.370Z,99.90
2019-02-19T04:40:48.778Z,99.90
2019-02-19T04:43:17.167Z,99.90
2019-02-19T04:45:45.586Z,99.90
2019-02-19T04:48:14.024Z,99.90
2019-02-19T04:50:42.415Z,99.90
2019-02-19T04:53:10.808Z,99.90
2019-02-19T04:55:39.217Z,99.90
2019-02-19T04:58:07.629Z,99.90
2019-02-19T05:00:36.028Z,99.90
2019-02-19T05:03:04.512Z,99.90
2019-02-19T05:05:32.930Z,99.90
2019-02-19T05:08:01.562Z,99.90
2019-02-19T05:10:30.007Z,99.90
2019-02-19T05:12:58.396Z,99.90
2019-02-19T05:15:26.818Z,99.90
2019-02-19T05:17:55.233Z,99.90
2019-02-19T05:20:23.665Z,99.90
2019-02-19T05:22:52.067Z,99.90
2019-02-19T05:25:20.503Z,99.90
2019-02-19T05:27:48.908Z,99.90
2019-02-19T05:30:17.337Z,99.90
2019-02-19T05:32:45.760Z,99.90
2019-02-19T05:35:14.211Z,99.90
2019-02-19T05:37:42.608Z,99.90
2019-02-19T05:40:11.321Z,99.90
2019-02-19T05:42:39.736Z,99.90
2019-02-19T05:45:09.845Z,99.90
2019-02-19T05:47:38.271Z,99.90
2019-02-19T05:50:10.116Z,99.90
2019-02-19T05:52:38.510Z,99.90
2019-02-19T05:55:08.052Z,99.90
2019-02-19T05:57:36.479Z,99.90
2019-02-19T06:00:08.956Z,99.90
2019-02-19T06:02:37.373Z,99.90
2019-02-19T06:05:07.933Z,99.90
2019-02-19T06:07:36.332Z,99.90
2019-02-19T06:10:07.944Z,99.90
2019-02-19T06:12:36.465Z,99.90
2019-02-19T06:15:07.312Z,99.90
2019-02-19T06:17:35.727Z,99.90
2019-02-19T06:20:05.384Z,99.90
2019-02-19T06:22:33.792Z,99.90
2019-02-19T06:25:02.203Z,99.90
2019-02-19T06:27:30.622Z,99.90
2019-02-19T06:29:59.110Z,99.90
2019-02-19T06:32:30.591Z,99.90
2019-02-19T06:34:59.080Z,99.90
2019-02-19T06:37:27.524Z,99.90
2019-02-19T06:39:55.988Z,99.90
2019-02-19T06:42:24.416Z,99.90
2019-02-19T06:44:52.813Z,99.90
2019-02-19T06:47:21.235Z,99.90
2019-02-19T06:49:49.754Z,99.90
2019-02-19T06:52:18.194Z,99.90
2019-02-19T06:54:46.618Z,99.90
2019-02-19T06:57:15.037Z,99.90
2019-02-19T06:59:43.491Z,99.90
2019-02-19T07:02:13.599Z,99.90
2019-02-19T07:04:43.666Z,99.90
2019-02-19T07:07:12.068Z,99.90
2019-02-19T07:09:40.511Z,99.90
2019-02-19T07:12:08.923Z,99.90
2019-02-19T07:14:37.327Z,99.90
2019-02-19T07:17:05.737Z,99.90
2019-02-19T07:19:34.160Z,99.90
2019-02-19T07:22:02.557Z,99.90
2019-02-19T07:24:31.081Z,99.90
2019-02-19T07:26:59.566Z,99.90
2019-02-19T07:29:28.033Z,99.90
2019-02-19T07:31:56.472Z,99.90
2019-02-19T07:34:26.409Z,99.90
2019-02-19T07:36:54.900Z,99.90
2019-02-19T07:39:23.334Z,99.90
2019-02-19T07:41:51.740Z,99.90
2019-02-19T07:44:20.145Z,99.90
2019-02-19T07:46:48.579Z,99.90
2019-02-19T07:49:17.010Z,99.90
2019-02-19T07:51:45.437Z,99.90
2019-02-19T07:54:13.847Z,99.90
2019-02-19T07:56:42.242Z,99.90
2019-02-19T07:59:10.665Z,99.90
2019-02-19T08:01:39.076Z,99.90
2019-02-19T08:04:07.490Z,99.90
2019-02-19T08:06:35.947Z,99.90
2019-02-19T08:09:06.156Z,99.90
2019-02-19T08:11:34.555Z,99.90
2019-02-19T08:14:02.960Z,99.90
2019-02-19T08:16:31.513Z,99.90
2019-02-19T08:18:59.929Z,99.90
2019-02-19T08:21:28.344Z,99.90
2019-02-19T08:23:56.829Z,99.90
2019-02-19T08:26:25.227Z,99.90
2019-02-19T08:28:53.643Z,99.90
2019-02-19T08:31:22.076Z,99.90
2019-02-19T08:33:50.490Z,99.90
2019-02-19T08:36:18.905Z,99.90
2019-02-19T08:38:47.309Z,99.90
2019-02-19T08:41:15.711Z,99.90
2019-02-19T08:43:44.109Z,99.90
2019-02-19T08:46:12.622Z,99.90
2019-02-19T08:48:41.029Z,99.90
2019-02-19T08:51:09.439Z,99.90
2019-02-19T08:53:37.856Z,99.90
2019-02-19T08:56:06.260Z,99.90
2019-02-19T08:58:34.674Z,99.90
2019-02-19T09:01:03.171Z,99.90
2019-02-19T09:03:31.824Z,99.90
2019-02-19T09:06:00.228Z,99.90
2019-02-19T09:08:28.676Z,95.70
2019-02-19T09:10:57.133Z,94.00
2019-02-19T09:13:25.555Z,90.20
2019-02-19T09:15:54.029Z,84.90
2019-02-19T09:18:22.435Z,76.50
2019-02-19T09:20:52.554Z,66.10
2019-02-19T09:23:20.968Z,60.50
2019-02-19T09:25:49.369Z,55.70
2019-02-19T09:28:17.878Z,55.90
2019-02-19T09:30:46.302Z,57.90
2019-02-19T09:33:14.733Z,54.70
2019-02-19T09:35:43.146Z,51.60
2019-02-19T09:38:11.555Z,50.40
2019-02-19T09:40:40.030Z,52.50
2019-02-19T09:43:08.443Z,53.50
2019-02-19T09:45:36.843Z,50.90
2019-02-19T09:48:05.319Z,53.10
2019-02-19T09:50:33.752Z,57.30
2019-02-19T09:53:02.148Z,56.00
2019-02-19T09:55:30.640Z,54.90
2019-02-19T09:57:59.128Z,56.20
2019-02-19T10:00:40.000Z,55.00
2019-02-19T10:03:08.400Z,49.90
2019-02-19T10:05:36.804Z,45.20
2019-02-19T10:08:05.212Z,46.30
2019-02-19T10:10:35.207Z,47.80
2019-02-19T10:13:03.662Z,47.80
2019-02-19T10:15:32.067Z,49.40
2019-02-19T10:18:00.494Z,50.90
2019-02-19T10:20:28.930Z,51.20
2019-02-19T10:22:57.357Z,51.20
2019-02-19T10:25:25.760Z,42.80
2019-02-19T10:27:54.160Z,43.40
2019-02-19T10:30:22.570Z,42.30
2019-02-19T10:32:51.223Z,43.40
2019-02-19T10:35:19.688Z,43.20
2019-02-19T10:37:48.198Z,41.80
2019-02-19T10:40:20.550Z,45.30
2019-02-19T10:42:48.973Z,45.70
2019-02-19T10:45:19.535Z,46.50
2019-02-19T10:47:47.934Z,49.20
2019-02-19T10:50:16.337Z,51.20
2019-02-19T10:52:45.016Z,50.80
2019-02-19T10:55:13.500Z,46.30
2019-02-19T10:57:41.915Z,44.20
2019-02-19T11:00:14.915Z,42.70
2019-02-19T11:02:43.316Z,44.00
2019-02-19T11:05:11.872Z,46.60
2019-02-19T11:07:40.290Z,47.70
2019-02-19T11:10:15.832Z,49.40
2019-02-19T11:12:44.251Z,52.20
2019-02-19T11:15:13.903Z,56.10
2019-02-19T11:17:42.381Z,58.80
2019-02-19T11:20:13.487Z,60.30
2019-02-19T11:22:41.930Z,61.70
2019-02-19T11:25:12.049Z,62.20
2019-02-19T11:27:40.447Z,62.50
2019-02-19T11:30:16.976Z,61.20
2019-02-19T11:32:45.394Z,62.20
2019-02-19T11:35:13.815Z,62.80
2019-02-19T11:37:42.221Z,62.30
2019-02-19T11:40:14.292Z,61.40
2019-02-19T11:42:42.696Z,61.90
2019-02-19T11:45:16.399Z,62.20
2019-02-19T11:47:44.842Z,61.70
2019-02-19T11:50:13.570Z,62.00
2019-02-19T11:52:42.040Z,63.40
2019-02-19T11:55:15.238Z,64.30
2019-02-19T11:57:43.645Z,66.40
2019-02-19T12:02:44.952Z,68.70
2019-02-19T12:05:13.468Z,72.50
2019-02-19T12:07:41.907Z,72.20
2019-02-19T12:10:11.956Z,72.70
2019-02-19T12:12:40.762Z,73.70
2019-02-19T12:15:13.499Z,74.20
2019-02-19T12:17:41.916Z,74.10
2019-02-19T12:20:12.047Z,74.30
2019-02-19T12:22:40.465Z,73.30
2019-02-19T12:25:09.804Z,73.90
2019-02-19T12:27:38.209Z,73.20
2019-02-19T12:30:18.142Z,73.00
2019-02-19T12:32:46.564Z,73.20
2019-02-19T12:35:15.037Z,73.50
2019-02-19T12:37:43.448Z,74.60
2019-02-19T12:40:13.008Z,75.30
2019-02-19T12:42:41.418Z,76.60
2019-02-19T12:45:12.246Z,77.50
2019-02-19T12:47:40.656Z,77.90
2019-02-19T12:50:14.569Z,77.80
2019-02-19T12:52:42.967Z,78.00
2019-02-19T12:55:11.592Z,78.90
2019-02-19T12:57:39.997Z,79.40
2019-02-19T13:00:11.468Z,78.10
2019-02-19T13:02:39.888Z,78.40
2019-02-19T13:05:10.330Z,77.10
2019-02-19T13:07:38.824Z,77.60
2019-02-19T13:10:09.681Z,77.90
2019-02-19T13:12:38.171Z,78.10
2019-02-19T13:15:12.477Z,77.70
2019-02-19T13:17:40.874Z,77.30
2019-02-19T13:20:12.004Z,77.50
2019-02-19T13:22:40.463Z,77.50
2019-02-19T13:25:10.532Z,77.30
2019-02-19T13:27:39.060Z,77.30
2019-02-19T13:30:16.093Z,77.90
2019-02-19T13:32:44.495Z,77.70
2019-02-19T13:35:13.636Z,78.10
2019-02-19T13:37:42.028Z,78.70
2019-02-19T13:40:20.280Z,79.00
2019-02-19T13:42:48.685Z,79.10
2019-02-19T13:45:17.161Z,78.50
2019-02-19T13:47:45.628Z,78.40
2019-02-19T13:50:31.589Z,79.40
2019-02-19T13:53:07.463Z,78.60
2019-02-19T13:55:37.514Z,77.60
2019-02-19T13:58:06.129Z,78.50
2019-02-19T14:00:42.056Z,78.60
2019-02-19T14:03:10.489Z,78.80
2019-02-19T14:05:41.971Z,80.00
2019-02-19T14:08:14.641Z,80.30
2019-02-19T14:10:43.301Z,80.00
2019-02-19T14:13:12.954Z,79.70
2019-02-19T14:15:57.874Z,80.80
2019-02-19T14:18:45.665Z,81.30
2019-02-19T14:21:15.730Z,81.60
2019-02-19T14:23:45.772Z,82.00
2019-02-19T14:26:18.560Z,82.60
2019-02-19T14:28:48.636Z,82.80
2019-02-19T14:31:38.710Z,81.50
2019-02-19T14:34:17.450Z,82.10
2019-02-19T14:36:59.611Z,82.90
2019-02-19T14:39:32.562Z,83.50
2019-02-19T14:42:08.702Z,83.60
2019-02-19T14:44:41.466Z,83.50
2019-02-19T14:47:23.699Z,83.00
2019-02-19T14:49:53.724Z,83.20
2019-02-19T14:52:23.762Z,83.60
2019-02-19T14:54:56.621Z,84.10
2019-02-19T14:57:38.398Z,83.40
2019-02-19T15:00:13.812Z,83.50
2019-02-19T15:03:00.131Z,83.80
2019-02-19T15:05:48.035Z,84.50
2019-02-19T15:08:34.240Z,90.00
2019-02-19T15:11:04.305Z,91.00
2019-02-19T15:13:40.363Z,84.60
2019-02-19T15:16:10.408Z,85.50
2019-02-19T15:18:49.180Z,83.10
2019-02-19T15:21:25.608Z,81.80
2019-02-19T15:24:01.184Z,81.90
2019-02-19T15:26:43.315Z,81.70
2019-02-19T15:29:29.857Z,81.20
2019-02-19T15:32:09.098Z,81.30
2019-02-19T15:34:55.376Z,82.10
2019-02-19T15:37:40.751Z,82.40
2019-02-19T15:40:10.781Z,82.60
2019-02-19T15:42:43.820Z,81.50
2019-02-19T15:45:16.707Z,82.10
2019-02-19T15:48:01.771Z,82.50
2019-02-19T15:50:48.207Z,82.90
2019-02-19T15:53:18.232Z,82.70
2019-02-19T15:55:48.260Z,83.00
2019-02-19T15:58:27.175Z,83.10
2019-02-19T16:01:13.617Z,83.00
2019-02-19T16:03:43.670Z,83.50
2019-02-19T16:06:25.766Z,84.20
2019-02-19T16:09:01.540Z,89.00
2019-02-19T16:11:34.545Z,85.50
2019-02-19T16:14:22.711Z,85.80
2019-02-19T16:16:58.600Z,86.00
2019-02-19T16:19:45.328Z,86.20
2019-02-19T16:22:15.370Z,86.50
2019-02-19T16:25:03.355Z,86.80
2019-02-19T16:27:39.373Z,86.60
2019-02-19T16:30:16.143Z,86.10
2019-02-19T16:33:02.330Z,87.70
2019-02-19T16:35:38.389Z,88.20
2019-02-19T16:38:14.181Z,88.60
2019-02-19T16:40:46.815Z,90.20
2019-02-19T16:43:19.837Z,89.80
2019-02-19T16:45:55.688Z,89.70
2019-02-19T16:48:31.627Z,90.00
2019-02-19T16:51:07.467Z,89.90
2019-02-19T16:53:54.090Z,90.10
2019-02-19T16:56:40.224Z,90.00
2019-02-19T16:59:13.694Z,90.20
2019-02-19T17:01:46.146Z,90.30
2019-02-19T17:04:32.891Z,90.20
2019-02-19T17:07:05.949Z,90.30
2019-02-19T17:09:36.006Z,90.50
2019-02-19T17:12:24.236Z,90.70
2019-02-19T17:14:54.292Z,90.60
2019-02-19T17:17:42.391Z,90.70
2019-02-19T17:20:26.327Z,91.10
2019-02-19T17:22:59.428Z,91.70
2019-02-19T17:25:41.711Z,91.50
2019-02-19T17:28:27.635Z,91.60
2019-02-19T17:31:09.663Z,91.70
2019-02-19T17:33:42.144Z,92.00
2019-02-19T17:36:12.173Z,92.40
2019-02-19T17:38:54.243Z,92.60
2019-02-19T17:41:26.823Z,92.80
2019-02-19T17:43:56.860Z,92.80
2019-02-19T17:46:45.275Z,92.90
2019-02-19T17:49:15.322Z,93.10
2019-02-19T17:51:45.357Z,93.10
2019-02-19T17:54:27.386Z,93.00
2019-02-19T17:56:57.414Z,93.10
2019-02-19T17:59:27.443Z,93.20
2019-02-19T18:01:57.489Z,93.40
2019-02-19T18:04:27.523Z,93.40
2019-02-19T18:07:00.232Z,93.70
2019-02-19T18:09:35.789Z,93.70
2019-02-19T18:12:15.059Z,94.00
2019-02-19T18:14:47.799Z,94.40
2019-02-19T18:17:29.906Z,94.60
2019-02-19T18:19:58.407Z,94.60
2019-02-19T18:22:27.199Z,95.00
2019-02-19T18:24:55.612Z,95.10
2019-02-19T18:27:24.023Z,95.30
2019-02-19T18:29:52.439Z,95.90
2019-02-19T18:32:20.854Z,96.30
2019-02-19T18:34:49.266Z,96.50
2019-02-19T18:37:17.692Z,96.70
2019-02-19T18:39:46.095Z,97.00
2019-02-19T18:42:14.532Z,97.50
2019-02-19T18:44:42.944Z,97.40
2019-02-19T18:47:11.347Z,97.60
2019-02-19T18:49:39.777Z,97.90
2019-02-19T18:52:08.295Z,98.30
2019-02-19T18:54:36.695Z,98.80
2019-02-19T18:57:05.101Z,99.00
2019-02-19T18:59:33.492Z,99.30
2019-02-19T19:02:01.880Z,99.80
2019-02-19T19:04:30.315Z,99.90
2019-02-19T19:06:58.702Z,99.90
2019-02-19T19:09:27.083Z,99.90
2019-02-19T19:11:55.504Z,99.90
2019-02-19T19:14:23.897Z,99.90
2019-02-19T19:16:52.283Z,99.90
2019-02-19T19:19:20.672Z,99.90
2019-02-19T19:21:49.055Z,99.90
2019-02-19T19:24:17.442Z,99.90
2019-02-19T19:26:46.107Z,99.90
2019-02-19T19:29:14.492Z,99.90
2019-02-19T19:31:42.886Z,99.90
2019-02-19T19:34:11.347Z,99.90
2019-02-19T19:36:39.739Z,99.90
2019-02-19T19:39:08.376Z,99.90
2019-02-19T19:41:36.763Z,99.90
2019-02-19T19:44:05.171Z,99.90
2019-02-19T19:46:33.553Z,99.90
2019-02-19T19:49:01.945Z,99.90
2019-02-19T19:51:30.347Z,99.90
2019-02-19T19:53:58.731Z,99.90
2019-02-19T19:56:27.119Z,99.90
2019-02-19T19:58:55.519Z,99.90
2019-02-19T20:01:23.908Z,99.90
2019-02-19T20:03:52.300Z,99.90
2019-02-19T20:06:20.770Z,99.90
2019-02-19T20:08:49.159Z,99.90
2019-02-19T20:11:17.544Z,99.90
2019-02-19T20:13:45.947Z,99.90
2019-02-19T20:16:14.368Z,99.90
2019-02-19T20:18:42.761Z,99.90
2019-02-19T20:21:11.157Z,99.90
2019-02-19T20:23:39.547Z,99.90
2019-02-19T20:26:08.092Z,99.90
2019-02-19T20:28:36.491Z,99.90
2019-02-19T20:31:05.021Z,99.90
2019-02-19T20:33:33.446Z,99.90
2019-02-19T20:36:01.877Z,99.90
2019-02-19T20:38:30.251Z,99.90
2019-02-19T20:40:58.663Z,99.90
2019-02-19T20:43:27.061Z,99.90
2019-02-19T20:45:55.468Z,99.90
2019-02-19T20:48:23.863Z,99.90
2019-02-19T20:50:52.247Z,99.90
2019-02-19T20:53:20.645Z,99.90
2019-02-19T20:55:49.040Z,99.90
2019-02-19T20:58:17.438Z,99.90
2019-02-19T21:00:45.831Z,99.90
2019-02-19T21:03:14.223Z,99.90
2019-02-19T21:05:42.669Z,99.90
2019-02-19T21:08:11.063Z,99.90
2019-02-19T21:10:39.469Z,99.90
2019-02-19T21:13:07.847Z,99.90
2019-02-19T21:15:36.251Z,99.90
2019-02-19T21:18:04.712Z,99.90
2019-02-19T21:20:33.101Z,99.90
2019-02-19T21:23:01.492Z,99.90
2019-02-19T21:25:31.203Z,99.90
2019-02-19T21:27:59.745Z,99.90
2019-02-19T21:30:28.150Z,99.90
2019-02-19T21:32:56.531Z,99.90
2019-02-19T21:35:24.931Z,99.90
2019-02-19T21:37:53.323Z,99.90
2019-02-19T21:40:21.722Z,99.90
2019-02-19T21:42:50.141Z,99.90
2019-02-19T21:45:18.529Z,99.90
2019-02-19T21:47:46.914Z,99.90
2019-02-19T21:50:15.849Z,99.90
2019-02-19T21:52:44.387Z,99.90
2019-02-19T21:55:13.151Z,99.90
2019-02-19T21:57:41.559Z,99.90
2019-02-19T22:00:14.695Z,99.90
2019-02-19T22:02:43.066Z,99.90
2019-02-19T22:05:11.531Z,99.90
2019-02-19T22:07:39.935Z,99.90
2019-02-19T22:10:11.403Z,99.90
2019-02-19T22:12:39.815Z,99.90
2019-02-19T22:15:11.222Z,99.90
2019-02-19T22:17:39.689Z,99.90
2019-02-19T22:20:30.423Z,99.90
2019-02-19T22:22:58.807Z,99.90
2019-02-19T22:25:27.195Z,99.90
2019-02-19T22:27:55.600Z,99.90
2019-02-19T22:30:23.983Z,99.90
2019-02-19T22:32:52.375Z,99.90
2019-02-19T22:35:20.780Z,99.90
2019-02-19T22:37:49.172Z,99.90
2019-02-19T22:40:17.556Z,99.90
2019-02-19T22:42:45.949Z,99.90
2019-02-19T22:45:14.404Z,99.90
2019-02-19T22:47:42.799Z,99.90
2019-02-19T22:50:11.539Z,99.90
2019-02-19T22:52:39.923Z,99.90
2019-02-19T22:55:11.494Z,99.90
2019-02-19T22:57:39.912Z,99.90
2019-02-19T23:00:15.799Z,99.90
2019-02-19T23:02:44.639Z,99.90
2019-02-19T23:05:13.098Z,99.90
2019-02-19T23:07:41.485Z,99.90
2019-02-19T23:10:09.974Z,99.90
2019-02-19T23:12:38.353Z,99.90
2019-02-19T23:15:06.924Z,99.90
2019-02-19T23:17:35.324Z,99.90
2019-02-19T23:20:04.755Z,99.90
2019-02-19T23:22:33.135Z,99.90
2019-02-19T23:25:01.552Z,99.90
2019-02-19T23:27:29.943Z,99.90
2019-02-19T23:29:58.332Z,99.90
2019-02-19T23:32:26.782Z,99.90
2019-02-19T23:35:13.283Z,99.90
2019-02-19T23:37:41.699Z,99.90
2019-02-19T23:40:10.321Z,99.90
2019-02-19T23:42:38.711Z,99.90
2019-02-19T23:45:08.445Z,99.90
2019-02-19T23:47:36.831Z,99.90
2019-02-19T23:50:08.623Z,99.90
2019-02-19T23:52:37.020Z,99.90
2019-02-19T23:55:07.243Z,99.90
2019-02-19T23:57:36.474Z,99.90
